Gilkey, North Carolina
Current Conditions -  °F | °C
As of 2:35 PM on Tuesday 21 Oct 2014 (Local Time) from KFQD Reporting Station
Scattered Clouds Scattered Clouds  
Wind Chill: 73°   Ceiling: Unl
Heat Index: 73°   Visibility: 10mi
Dew Point: 44°   Wind: 9mph
Humidity: 36%   Direction: 270°W
Pressure: 29.9"   Gusts: 18mph
Location:  35.3722°N, 82.0134°W
Report Text: KFQD 211835Z AUTO 27008G16KT 10SM SCT060 23/07 A2990 RMK AO2 T02260067
Loading
Personal Weather Stations






























Interactive Weather Map
Tropical Storm Tracking
New forecast layout! Learn more

10-Day Weather Forecast

Advertisements
Track Severe Weather on mobile